Terminal Aerodrome Forecast
Issued by NWS

Home | Current Version | Previous Version | Graphics & Text | Print | Product List | Glossary On
Versions: 1 2 3 4 5 6 7 8 9 10 11 12 13 14
000
FTUS43 KIWX 301739
TAFSBN
TAF
KSBN 301739Z 3018/3118 31008KT P6SM BKN018
     FM302100 33005KT P6SM BKN025
     FM310000 27006KT P6SM SCT025 BKN040
     FM310800 22002KT 5SM BR BKN020
     FM311000 22002KT 2SM BR BKN008
      TEMPO 3110/3112 1SM BR
     FM311400 22006KT P6SM BKN015=

USA.gov is the U.S. government's official web portal to all federal, state and local government web resources and services.